Time;durP1;ratioP1;P1;durP2;ratioP2;P2;SDS_P1;SDS_P2;PMS_P1;PMS_P2;Temp;Humidity;BMP_temperature;BMP_pressure;BME280_temperature;BME280_humidity;BME280_pressure;Samples;Min_cycle;Max_cycle;Signal;HPM_P1;HPM_P2
2021/09/07 00:01:03;;;;;;;3.85;2.97;;;25.00;49.30;;;;;;5027303;28;20473;-50
2021/09/07 00:03:29;;;;;;;3.58;2.75;;;25.00;49.30;;;;;;5022035;28;20443;-50
2021/09/07 00:05:54;;;;;;;3.47;2.78;;;24.90;49.20;;;;;;5018655;28;20499;-57
2021/09/07 00:08:20;;;;;;;3.53;2.88;;;24.90;49.20;;;;;;5021560;28;20167;-48
2021/09/07 00:10:46;;;;;;;3.85;2.92;;;24.90;49.30;;;;;;5011569;28;20030;-47
2021/09/07 00:13:11;;;;;;;3.70;2.78;;;24.90;49.30;;;;;;5009711;28;20133;-53
2021/09/07 00:15:37;;;;;;;3.97;2.72;;;24.90;49.30;;;;;;5022237;28;20033;-50
2021/09/07 00:18:03;;;;;;;5.43;3.28;;;24.90;49.30;;;;;;5028481;28;20041;-57
2021/09/07 00:20:28;;;;;;;3.90;3.03;;;24.90;49.30;;;;;;5028460;28;20105;-51
2021/09/07 00:22:54;;;;;;;3.45;2.78;;;24.90;49.30;;;;;;5027520;28;20017;-58
2021/09/07 00:25:20;;;;;;;3.80;2.72;;;24.90;49.30;;;;;;5021739;28;20040;-51
2021/09/07 00:27:45;;;;;;;3.65;2.60;;;24.90;49.40;;;;;;5023405;28;20101;-59
2021/09/07 00:30:12;;;;;;;3.70;2.70;;;24.90;49.40;;;;;;5024742;28;20030;-57
2021/09/07 00:32:37;;;;;;;3.28;2.90;;;24.80;49.30;;;;;;5022894;28;20044;-58
2021/09/07 00:35:03;;;;;;;3.60;2.83;;;24.90;49.40;;;;;;5023561;28;20037;-57
2021/09/07 00:37:28;;;;;;;3.80;2.92;;;24.80;49.40;;;;;;5024186;28;20025;-58
2021/09/07 00:39:54;;;;;;;3.88;2.92;;;24.80;49.40;;;;;;5023098;28;20580;-52
2021/09/07 00:42:20;;;;;;;3.55;2.72;;;24.80;49.40;;;;;;5025922;28;20546;-56
2021/09/07 00:44:45;;;;;;;3.47;2.75;;;24.80;49.40;;;;;;5024807;28;20149;-57
2021/09/07 00:47:12;;;;;;;3.45;2.92;;;24.80;49.50;;;;;;5010972;28;20057;-59
2021/09/07 00:49:37;;;;;;;3.53;3.00;;;24.80;49.50;;;;;;5023264;28;20406;-56
2021/09/07 00:52:05;;;;;;;4.00;3.03;;;24.80;49.50;;;;;;5019285;28;20045;-57
2021/09/07 00:54:33;;;;;;;3.35;2.80;;;24.80;49.50;;;;;;5020133;28;20029;-58
2021/09/07 00:57:02;;;;;;;3.50;2.85;;;24.80;49.50;;;;;;5026885;28;20140;-59
2021/09/07 00:59:33;;;;;;;3.42;2.80;;;24.70;49.50;;;;;;5024227;28;20014;-53
2021/09/07 01:01:58;;;;;;;3.45;2.78;;;24.80;49.50;;;;;;5019978;28;20025;-52
2021/09/07 01:04:25;;;;;;;3.83;2.70;;;24.80;49.50;;;;;;5018735;28;20030;-58
2021/09/07 01:06:51;;;;;;;3.97;2.90;;;24.70;49.50;;;;;;5018184;28;20025;-50
2021/09/07 01:09:17;;;;;;;3.70;3.00;;;24.70;49.60;;;;;;5026611;28;20470;-57
2021/09/07 01:11:43;;;;;;;3.50;2.88;;;24.70;49.50;;;;;;5017961;28;20121;-58
2021/09/07 01:14:08;;;;;;;3.50;2.60;;;24.70;49.60;;;;;;5022033;28;20112;-56
2021/09/07 01:16:34;;;;;;;3.42;2.97;;;24.70;49.60;;;;;;5024264;28;20520;-58
2021/09/07 01:19:00;;;;;;;3.28;2.50;;;24.70;49.60;;;;;;5012397;28;20041;-60
2021/09/07 01:21:27;;;;;;;3.75;2.80;;;24.70;49.60;;;;;;5023718;28;20052;-49
2021/09/07 01:23:53;;;;;;;3.38;2.58;;;24.70;49.60;;;;;;5026183;28;20029;-53
2021/09/07 01:26:20;;;;;;;3.78;2.80;;;24.70;49.60;;;;;;5020213;28;20068;-58
2021/09/07 01:28:47;;;;;;;3.00;2.50;;;24.70;49.70;;;;;;5027374;28;20056;-57
2021/09/07 01:31:13;;;;;;;3.25;2.65;;;24.70;49.60;;;;;;5018926;28;20323;-59
2021/09/07 01:33:40;;;;;;;3.35;2.60;;;24.70;49.70;;;;;;5016061;28;20064;-55
2021/09/07 01:36:06;;;;;;;3.67;2.85;;;24.60;49.60;;;;;;5015095;28;20112;-58
2021/09/07 01:38:33;;;;;;;3.20;2.70;;;24.60;49.60;;;;;;5018241;28;20064;-58
2021/09/07 01:40:59;;;;;;;2.80;2.40;;;24.60;49.60;;;;;;5019030;28;20040;-56
2021/09/07 01:43:25;;;;;;;3.53;2.88;;;24.60;49.70;;;;;;5014729;28;20053;-58
2021/09/07 01:45:52;;;;;;;2.80;2.40;;;24.60;49.70;;;;;;5019994;28;20038;-57
2021/09/07 01:48:23;;;;;;;3.85;2.75;;;24.60;49.70;;;;;;5027445;28;20030;-57
2021/09/07 01:50:49;;;;;;;3.88;2.63;;;24.60;49.70;;;;;;5021537;28;20061;-59
2021/09/07 01:53:15;;;;;;;3.00;2.60;;;24.60;49.70;;;;;;5015175;28;20038;-55
2021/09/07 01:55:41;;;;;;;3.50;2.78;;;24.60;49.70;;;;;;5015980;28;20083;-51
2021/09/07 01:58:07;;;;;;;3.42;2.70;;;24.60;49.70;;;;;;5024786;28;20057;-54
2021/09/07 02:00:34;;;;;;;4.32;2.55;;;24.60;49.70;;;;;;5024915;28;20076;-59
2021/09/07 02:03:00;;;;;;;3.70;2.70;;;24.60;49.80;;;;;;5023374;28;20041;-52
2021/09/07 02:05:26;;;;;;;3.15;2.60;;;24.60;49.80;;;;;;5021057;28;20049;-50
2021/09/07 02:07:52;;;;;;;3.90;2.75;;;24.60;49.80;;;;;;5018077;28;20091;-57
2021/09/07 02:10:19;;;;;;;3.42;2.42;;;24.60;49.80;;;;;;5013520;28;20125;-58
2021/09/07 02:12:46;;;;;;;3.33;2.60;;;24.50;50.30;;;;;;5025139;28;20466;-54
2021/09/07 02:15:12;;;;;;;3.17;2.50;;;24.50;49.80;;;;;;5020781;28;20029;-56
2021/09/07 02:17:37;;;;;;;3.00;2.47;;;24.50;49.80;;;;;;5024632;28;20041;-58
2021/09/07 02:20:04;;;;;;;3.40;2.70;;;24.50;49.80;;;;;;5020550;28;20030;-59
2021/09/07 02:22:30;;;;;;;3.00;2.58;;;24.50;50.30;;;;;;5022765;28;20033;-51
2021/09/07 02:24:55;;;;;;;3.05;2.53;;;24.50;49.80;;;;;;5017459;28;20030;-50
2021/09/07 02:27:21;;;;;;;2.90;2.40;;;24.50;49.80;;;;;;5023005;28;20037;-55
2021/09/07 02:29:47;;;;;;;3.75;2.50;;;24.50;49.80;;;;;;5023807;28;20041;-51
2021/09/07 02:32:13;;;;;;;2.80;2.33;;;24.50;49.80;;;;;;5013807;28;20056;-57
2021/09/07 02:34:39;;;;;;;3.30;2.53;;;24.50;49.90;;;;;;5013005;28;20057;-56
2021/09/07 02:37:05;;;;;;;3.70;2.90;;;24.50;49.90;;;;;;5022461;28;20026;-57
2021/09/07 02:39:31;;;;;;;3.13;2.53;;;24.40;49.90;;;;;;5008445;28;20026;-58
2021/09/07 02:41:56;;;;;;;3.95;2.60;;;24.40;49.90;;;;;;5026195;28;20037;-57
2021/09/07 02:44:22;;;;;;;3.10;2.60;;;24.40;49.90;;;;;;5025447;28;20064;-55
2021/09/07 02:46:48;;;;;;;3.45;2.58;;;24.40;49.90;;;;;;5019017;28;20020;-55
2021/09/07 02:49:14;;;;;;;2.80;2.20;;;24.40;49.90;;;;;;5023958;28;20025;-55
2021/09/07 02:51:41;;;;;;;3.03;2.60;;;24.40;49.90;;;;;;5019358;28;20232;-57
2021/09/07 02:54:06;;;;;;;3.33;2.70;;;24.40;49.90;;;;;;5023729;28;20055;-59
2021/09/07 02:56:32;;;;;;;2.95;2.40;;;24.40;50.00;;;;;;5019589;28;20052;-58
2021/09/07 02:58:57;;;;;;;3.03;2.45;;;24.40;50.00;;;;;;5022470;28;20064;-54
2021/09/07 03:01:23;;;;;;;3.72;2.88;;;24.40;50.00;;;;;;5015023;28;20026;-58
2021/09/07 03:03:49;;;;;;;3.05;2.47;;;24.30;49.90;;;;;;5034293;28;20025;-53
2021/09/07 03:06:16;;;;;;;2.88;2.40;;;24.30;49.90;;;;;;5016674;28;20025;-59
2021/09/07 03:08:42;;;;;;;3.28;2.55;;;24.30;49.90;;;;;;5023223;28;20485;-54
2021/09/07 03:11:07;;;;;;;3.45;2.80;;;24.30;49.90;;;;;;5013339;28;20095;-59
2021/09/07 03:13:33;;;;;;;2.90;2.33;;;24.30;49.90;;;;;;5025099;28;20068;-51
2021/09/07 03:15:59;;;;;;;3.13;2.45;;;24.30;50.00;;;;;;5021135;28;20042;-57
2021/09/07 03:18:25;;;;;;;3.00;2.35;;;24.30;50.00;;;;;;5026653;28;20029;-55
2021/09/07 03:20:50;;;;;;;3.10;2.72;;;24.30;50.00;;;;;;5016863;28;20560;-53
2021/09/07 03:23:16;;;;;;;3.45;2.58;;;24.30;50.00;;;;;;5026832;28;20037;-57
2021/09/07 03:25:42;;;;;;;3.00;2.40;;;24.30;50.00;;;;;;5026385;28;20069;-59
2021/09/07 03:28:08;;;;;;;3.08;2.40;;;24.30;50.50;;;;;;5017666;28;20583;-58
2021/09/07 03:30:34;;;;;;;3.28;2.60;;;24.30;50.00;;;;;;5021257;28;20033;-57
2021/09/07 03:33:00;;;;;;;3.58;2.40;;;24.30;50.00;;;;;;5027866;28;20086;-54
2021/09/07 03:35:26;;;;;;;3.22;2.50;;;24.30;50.10;;;;;;5026250;28;20500;-52
2021/09/07 03:37:52;;;;;;;3.20;2.45;;;24.30;50.00;;;;;;5022602;28;20476;-58
2021/09/07 03:40:18;;;;;;;3.13;2.60;;;24.20;50.00;;;;;;5025139;28;20426;-50
2021/09/07 03:42:44;;;;;;;3.33;2.40;;;24.20;50.00;;;;;;5019010;28;20038;-59
2021/09/07 03:45:12;;;;;;;2.55;2.20;;;24.20;50.00;;;;;;5025533;28;20033;-57
2021/09/07 03:47:41;;;;;;;3.20;2.72;;;24.20;50.10;;;;;;5024567;28;20129;-57
2021/09/07 03:50:09;;;;;;;3.20;2.53;;;24.20;50.00;;;;;;5021427;28;20029;-55
2021/09/07 03:52:35;;;;;;;3.20;2.53;;;24.20;50.10;;;;;;5026465;28;20037;-56
2021/09/07 03:55:01;;;;;;;3.20;2.55;;;24.20;50.10;;;;;;5026473;28;20117;-57
2021/09/07 03:57:27;;;;;;;3.30;2.63;;;24.20;50.10;;;;;;5025188;28;20109;-56
2021/09/07 03:59:53;;;;;;;3.40;2.42;;;24.20;50.10;;;;;;5018205;28;20567;-52
2021/09/07 04:02:19;;;;;;;2.95;2.47;;;24.20;50.10;;;;;;5015154;28;20065;-59
2021/09/07 04:04:45;;;;;;;2.92;2.42;;;24.20;50.10;;;;;;5011948;28;20061;-57
2021/09/07 04:07:11;;;;;;;3.20;2.47;;;24.10;50.10;;;;;;5027288;28;20044;-59
2021/09/07 04:09:37;;;;;;;3.15;2.58;;;24.10;50.10;;;;;;5027526;28;20030;-49
2021/09/07 04:12:03;;;;;;;3.20;2.53;;;24.20;50.30;;;;;;5013514;28;20041;-54
2021/09/07 04:14:28;;;;;;;2.95;2.42;;;24.20;50.20;;;;;;5023947;28;20445;-49
2021/09/07 04:16:54;;;;;;;3.17;2.47;;;24.20;50.20;;;;;;5026171;28;20033;-50
2021/09/07 04:19:19;;;;;;;3.00;2.45;;;24.20;50.20;;;;;;5024600;28;20120;-48
2021/09/07 04:21:45;;;;;;;2.78;2.33;;;24.10;50.20;;;;;;5010906;28;20040;-54
2021/09/07 04:24:11;;;;;;;2.83;2.30;;;24.10;50.10;;;;;;5023543;28;20405;-60
2021/09/07 04:26:37;;;;;;;3.22;2.63;;;24.10;50.20;;;;;;5010261;28;20129;-58
2021/09/07 04:29:02;;;;;;;3.00;2.40;;;24.10;50.20;;;;;;5025460;28;20060;-54
2021/09/07 04:31:28;;;;;;;3.30;2.42;;;24.10;50.20;;;;;;5024508;28;20152;-52
2021/09/07 04:33:54;;;;;;;3.30;2.30;;;24.10;50.20;;;;;;5024180;28;20048;-58
2021/09/07 04:36:19;;;;;;;3.60;2.40;;;24.10;50.20;;;;;;5022325;28;20120;-58
2021/09/07 04:38:45;;;;;;;3.20;2.50;;;24.10;50.20;;;;;;5016973;28;20054;-58
2021/09/07 04:41:11;;;;;;;3.10;2.30;;;24.10;50.20;;;;;;5016660;28;20045;-56
2021/09/07 04:43:36;;;;;;;3.05;2.38;;;24.10;50.20;;;;;;5025045;28;20038;-59
2021/09/07 04:46:02;;;;;;;2.90;2.20;;;24.00;50.20;;;;;;5020821;28;20041;-47
2021/09/07 04:48:27;;;;;;;3.00;2.28;;;24.00;50.20;;;;;;5020554;28;20041;-56
2021/09/07 04:50:53;;;;;;;3.20;2.55;;;24.00;50.20;;;;;;5014584;28;20123;-59
2021/09/07 04:53:19;;;;;;;2.78;2.35;;;24.10;50.30;;;;;;5023372;28;20084;-50
2021/09/07 04:55:44;;;;;;;2.83;2.20;;;24.10;50.30;;;;;;5022403;28;20025;-58
2021/09/07 04:58:10;;;;;;;3.30;2.50;;;24.00;50.20;;;;;;5022196;28;20036;-49
2021/09/07 05:00:35;;;;;;;3.13;2.40;;;24.00;50.20;;;;;;5024400;28;20521;-51
2021/09/07 05:03:01;;;;;;;2.97;2.33;;;24.00;50.20;;;;;;5023354;28;20607;-49
2021/09/07 05:05:27;;;;;;;3.10;2.55;;;24.00;50.20;;;;;;5015815;28;20048;-48
2021/09/07 05:07:53;;;;;;;3.08;2.30;;;24.00;50.20;;;;;;5028278;28;20557;-56
2021/09/07 05:10:18;;;;;;;2.90;2.30;;;24.00;50.20;;;;;;5022137;28;20037;-57
2021/09/07 05:12:44;;;;;;;2.65;2.20;;;24.00;50.20;;;;;;5017780;28;20089;-51
2021/09/07 05:15:10;;;;;;;2.85;2.30;;;24.00;50.30;;;;;;5022510;28;20397;-49
2021/09/07 05:17:35;;;;;;;3.30;2.40;;;24.00;50.30;;;;;;5023707;28;20097;-57
2021/09/07 05:20:02;;;;;;;3.00;2.55;;;24.00;50.30;;;;;;5025675;28;20029;-56
2021/09/07 05:22:28;;;;;;;4.25;2.50;;;23.90;50.30;;;;;;5026841;28;20043;-56
2021/09/07 05:24:53;;;;;;;3.40;2.45;;;23.90;50.30;;;;;;5025316;28;20101;-57
2021/09/07 05:27:19;;;;;;;3.33;2.58;;;24.00;50.30;;;;;;5010343;28;20029;-57
2021/09/07 05:29:45;;;;;;;3.20;2.50;;;24.00;50.30;;;;;;5019648;28;20032;-57
2021/09/07 05:32:11;;;;;;;2.75;2.30;;;24.00;50.30;;;;;;5027871;28;20143;-57
2021/09/07 05:34:37;;;;;;;2.67;2.25;;;23.90;50.30;;;;;;5018158;28;20033;-59
2021/09/07 05:37:03;;;;;;;3.58;2.40;;;23.90;50.30;;;;;;5025355;28;20551;-57
2021/09/07 05:39:29;;;;;;;3.15;2.40;;;23.90;50.30;;;;;;5023459;28;20040;-57
2021/09/07 05:41:55;;;;;;;3.00;2.30;;;23.90;50.30;;;;;;5018677;28;20034;-53
2021/09/07 05:44:21;;;;;;;2.80;2.30;;;23.90;50.30;;;;;;5011181;28;20034;-54
2021/09/07 05:46:48;;;;;;;2.95;2.30;;;23.90;50.30;;;;;;5021351;28;20056;-56
2021/09/07 05:49:14;;;;;;;2.88;2.40;;;23.90;50.30;;;;;;5023322;28;20435;-55
2021/09/07 05:51:41;;;;;;;3.10;2.53;;;23.90;50.40;;;;;;5026908;28;20109;-58
2021/09/07 05:54:07;;;;;;;2.97;2.30;;;23.90;50.50;;;;;;5026675;28;20114;-50
2021/09/07 05:56:32;;;;;;;3.00;2.50;;;23.90;50.40;;;;;;5017709;28;20953;-59
2021/09/07 05:58:58;;;;;;;2.80;2.30;;;24.00;50.40;;;;;;5012934;28;20026;-57
2021/09/07 06:01:24;;;;;;;2.80;2.28;;;24.00;50.40;;;;;;5024966;28;20061;-57
2021/09/07 06:03:49;;;;;;;2.67;2.20;;;24.10;50.40;;;;;;5017733;28;20034;-51
2021/09/07 06:06:15;;;;;;;3.08;2.45;;;24.00;50.20;;;;;;5025286;28;20478;-51
2021/09/07 06:08:41;;;;;;;3.30;2.53;;;24.10;50.40;;;;;;5029991;28;20163;-53
2021/09/07 06:11:08;;;;;;;3.47;2.40;;;24.10;50.40;;;;;;5025813;28;20038;-57
2021/09/07 06:13:34;;;;;;;3.47;2.63;;;24.10;50.30;;;;;;5016956;28;20063;-54
2021/09/07 06:16:00;;;;;;;2.85;2.40;;;24.20;50.30;;;;;;5026307;28;20063;-57
2021/09/07 06:18:26;;;;;;;3.30;2.55;;;24.20;50.40;;;;;;5015923;28;20099;-48
2021/09/07 06:20:51;;;;;;;3.00;2.40;;;24.20;50.30;;;;;;5022352;28;20162;-58
2021/09/07 06:23:17;;;;;;;3.08;2.58;;;24.20;50.20;;;;;;5020333;28;20026;-50
2021/09/07 06:25:43;;;;;;;3.05;2.67;;;24.30;50.10;;;;;;5013230;28;20099;-54
2021/09/07 06:28:09;;;;;;;3.10;2.45;;;24.30;50.00;;;;;;5022293;28;20037;-53
2021/09/07 06:30:35;;;;;;;3.22;2.75;;;24.30;49.90;;;;;;5008898;28;20065;-54
2021/09/07 06:33:00;;;;;;;3.17;2.63;;;24.30;49.90;;;;;;5008449;28;20042;-53
2021/09/07 06:35:26;;;;;;;3.05;2.55;;;24.30;49.90;;;;;;5015528;28;20043;-56
2021/09/07 06:37:54;;;;;;;2.70;2.25;;;24.40;50.00;;;;;;5020379;28;20033;-56
2021/09/07 06:40:20;;;;;;;3.00;2.40;;;24.40;50.10;;;;;;5021341;28;20025;-59
2021/09/07 06:42:45;;;;;;;2.90;2.33;;;24.40;50.10;;;;;;5015749;28;20099;-57
2021/09/07 06:45:11;;;;;;;3.22;2.40;;;24.40;50.00;;;;;;5014397;28;20350;-53
2021/09/07 06:47:37;;;;;;;2.72;2.20;;;24.40;50.00;;;;;;5018901;28;20036;-52
2021/09/07 06:50:05;;;;;;;2.90;2.20;;;24.50;50.00;;;;;;5019588;28;20036;-51
2021/09/07 06:52:31;;;;;;;3.10;2.58;;;24.50;50.10;;;;;;5030495;28;20064;-53
2021/09/07 06:54:57;;;;;;;3.13;2.42;;;24.50;50.00;;;;;;5019370;28;20040;-57
2021/09/07 06:57:23;;;;;;;2.80;2.40;;;24.50;50.00;;;;;;5017622;28;20238;-53
2021/09/07 06:59:48;;;;;;;2.90;2.58;;;24.50;49.90;;;;;;5024965;28;20426;-56
2021/09/07 07:02:14;;;;;;;3.00;2.33;;;24.60;49.90;;;;;;5022573;28;20109;-55
2021/09/07 07:04:40;;;;;;;3.20;2.67;;;24.60;49.90;;;;;;5038278;28;20052;-54
2021/09/07 07:07:05;;;;;;;3.17;2.40;;;24.60;49.80;;;;;;5025218;28;20029;-56
2021/09/07 07:09:31;;;;;;;3.13;2.42;;;24.60;49.70;;;;;;5023852;28;20057;-55
2021/09/07 07:11:57;;;;;;;3.10;2.40;;;24.60;49.70;;;;;;5021291;28;20041;-56
2021/09/07 07:14:22;;;;;;;3.25;2.60;;;24.60;49.60;;;;;;5032198;28;20044;-58
2021/09/07 07:16:49;;;;;;;3.25;2.60;;;24.70;49.60;;;;;;5029834;28;20033;-55
2021/09/07 07:19:15;;;;;;;3.30;2.45;;;24.70;49.60;;;;;;5031316;28;20028;-57
2021/09/07 07:21:41;;;;;;;2.70;2.28;;;24.70;49.50;;;;;;5029128;28;20026;-57
2021/09/07 07:24:06;;;;;;;3.42;2.72;;;24.70;49.50;;;;;;5030829;28;20034;-53
2021/09/07 07:26:32;;;;;;;2.92;2.42;;;24.70;49.40;;;;;;5024378;28;20033;-55
2021/09/07 07:28:58;;;;;;;2.88;2.40;;;24.80;49.40;;;;;;5039451;28;20045;-54
2021/09/07 07:31:23;;;;;;;3.00;2.47;;;24.80;49.40;;;;;;5030339;28;20026;-55
2021/09/07 07:33:49;;;;;;;2.90;2.40;;;24.80;49.40;;;;;;5035290;28;20030;-52
2021/09/07 07:36:15;;;;;;;3.15;2.45;;;24.80;49.40;;;;;;5022016;28;20034;-57
2021/09/07 07:38:40;;;;;;;3.10;2.60;;;24.80;49.30;;;;;;5027264;28;20063;-51
2021/09/07 07:41:06;;;;;;;2.95;2.60;;;24.80;49.30;;;;;;5009269;28;20042;-56
2021/09/07 07:43:35;;;;;;;2.92;2.60;;;24.90;49.40;;;;;;5036847;28;20099;-57
2021/09/07 07:46:02;;;;;;;3.20;2.53;;;24.90;49.40;;;;;;5029459;28;20060;-57
2021/09/07 07:48:28;;;;;;;2.90;2.40;;;24.90;49.30;;;;;;5029715;28;20069;-55
2021/09/07 07:50:53;;;;;;;2.92;2.40;;;24.90;49.30;;;;;;5021945;28;20041;-55
2021/09/07 07:53:19;;;;;;;2.85;2.30;;;24.90;49.30;;;;;;5026047;28;20030;-58
2021/09/07 07:55:45;;;;;;;2.80;2.25;;;24.90;49.30;;;;;;5018034;28;20045;-58
2021/09/07 07:58:10;;;;;;;3.10;2.40;;;24.90;49.30;;;;;;5013853;28;20029;-59
2021/09/07 08:00:36;;;;;;;2.95;2.35;;;24.90;49.40;;;;;;5016685;28;20090;-57
2021/09/07 08:03:01;;;;;;;3.38;2.80;;;24.90;49.30;;;;;;5019456;28;20052;-56
2021/09/07 08:05:27;;;;;;;3.10;2.55;;;25.00;49.30;;;;;;5027813;28;20154;-52
2021/09/07 08:07:53;;;;;;;2.92;2.40;;;25.00;49.30;;;;;;5025963;28;20064;-51
2021/09/07 08:10:18;;;;;;;3.20;2.40;;;25.00;49.20;;;;;;5028786;28;20096;-57
2021/09/07 08:12:44;;;;;;;3.72;2.55;;;25.00;49.20;;;;;;5023435;28;20232;-54
2021/09/07 08:15:11;;;;;;;3.10;2.50;;;25.00;49.20;;;;;;5027425;28;20033;-50
2021/09/07 08:17:36;;;;;;;3.00;2.45;;;25.00;49.10;;;;;;5021381;28;20153;-58
2021/09/07 08:20:03;;;;;;;2.58;2.17;;;25.00;49.20;;;;;;5037233;28;20532;-53
2021/09/07 08:22:28;;;;;;;2.88;2.10;;;25.00;49.20;;;;;;5027704;28;20113;-50
2021/09/07 08:24:54;;;;;;;3.20;2.53;;;25.00;49.40;;;;;;5026086;28;20125;-54
2021/09/07 08:27:20;;;;;;;2.88;2.28;;;25.10;49.30;;;;;;5021353;28;20033;-50
2021/09/07 08:29:46;;;;;;;2.95;2.15;;;25.10;49.30;;;;;;5028023;28;20038;-52
2021/09/07 08:32:12;;;;;;;2.80;2.30;;;25.10;49.40;;;;;;5029418;28;20080;-57
2021/09/07 08:34:38;;;;;;;3.00;2.40;;;25.10;49.50;;;;;;5025392;28;20135;-53
2021/09/07 08:37:04;;;;;;;3.00;2.50;;;25.10;49.30;;;;;;5019575;28;20038;-53
2021/09/07 08:39:30;;;;;;;2.92;2.28;;;25.10;49.30;;;;;;5016922;28;20060;-58
2021/09/07 08:41:55;;;;;;;2.90;2.38;;;25.10;49.20;;;;;;5029258;28;20148;-53
2021/09/07 08:44:21;;;;;;;3.22;2.60;;;25.20;49.20;;;;;;5017850;28;20318;-57
2021/09/07 08:46:47;;;;;;;3.17;2.58;;;25.20;49.20;;;;;;5023635;28;20389;-55
2021/09/07 08:49:18;;;;;;;2.80;2.38;;;25.20;49.10;;;;;;5020431;28;20492;-58
2021/09/07 08:51:43;;;;;;;2.80;2.22;;;25.20;49.10;;;;;;5027684;28;20032;-57
2021/09/07 08:54:09;;;;;;;2.65;2.10;;;25.20;49.20;;;;;;5025954;28;20339;-57
2021/09/07 08:56:35;;;;;;;2.92;2.03;;;25.20;49.20;;;;;;5021832;28;20438;-51
2021/09/07 08:59:00;;;;;;;2.97;2.58;;;25.20;49.20;;;;;;5015283;28;20033;-54
2021/09/07 09:01:35;;;;;;;2.90;2.20;;;25.30;49.20;;;;;;5015019;28;20465;-53
2021/09/07 09:04:01;;;;;;;2.80;2.33;;;25.30;49.20;;;;;;5015137;28;20026;-58
2021/09/07 09:06:27;;;;;;;2.78;2.20;;;25.30;49.20;;;;;;5019705;28;20064;-53
2021/09/07 09:09:06;;;;;;;3.00;2.40;;;25.30;49.10;;;;;;5021297;28;20064;-58
2021/09/07 09:11:51;;;;;;;3.22;2.55;;;25.30;49.10;;;;;;5017828;28;20025;-55
2021/09/07 09:14:39;;;;;;;2.80;2.17;;;25.30;49.10;;;;;;5018403;28;20790;-57
2021/09/07 09:17:16;;;;;;;3.05;2.38;;;25.30;49.20;;;;;;5015667;28;20032;-49
2021/09/07 09:19:51;;;;;;;2.90;2.10;;;25.30;49.20;;;;;;5009357;28;20036;-57
2021/09/07 09:22:16;;;;;;;2.83;2.28;;;25.30;49.40;;;;;;5022026;28;20022;-52
2021/09/07 09:24:42;;;;;;;2.75;2.25;;;25.30;49.30;;;;;;5014830;28;20029;-57
2021/09/07 09:27:09;;;;;;;2.88;2.20;;;25.30;49.30;;;;;;5016778;28;20083;-54
2021/09/07 09:29:37;;;;;;;3.08;2.50;;;25.40;49.40;;;;;;5026315;28;20121;-52
2021/09/07 09:32:05;;;;;;;2.88;2.30;;;25.40;49.30;;;;;;5016145;28;20462;-57
2021/09/07 09:34:33;;;;;;;3.10;2.50;;;25.40;49.20;;;;;;5025288;28;20033;-58
2021/09/07 09:37:11;;;;;;;3.00;2.40;;;25.40;49.20;;;;;;5020258;28;20025;-55
2021/09/07 09:39:44;;;;;;;2.65;2.13;;;25.40;49.10;;;;;;5019936;28;20072;-58
2021/09/07 09:42:18;;;;;;;2.78;2.20;;;25.40;49.20;;;;;;5007302;28;20056;-59
2021/09/07 09:44:44;;;;;;;2.72;2.13;;;25.40;49.20;;;;;;5011834;28;20032;-57
2021/09/07 09:47:10;;;;;;;2.90;2.40;;;25.40;49.40;;;;;;5017471;28;20040;-56
2021/09/07 09:49:37;;;;;;;3.70;2.30;;;25.50;49.30;;;;;;5012809;28;20077;-55
2021/09/07 09:52:07;;;;;;;3.03;2.50;;;25.50;49.30;;;;;;5023675;28;20037;-55
2021/09/07 09:54:35;;;;;;;2.80;2.25;;;25.50;49.30;;;;;;5009932;28;20049;-53
2021/09/07 09:57:03;;;;;;;3.88;2.25;;;25.50;49.30;;;;;;5039134;28;20091;-59
2021/09/07 09:59:32;;;;;;;3.05;2.55;;;25.50;49.30;;;;;;5017486;28;20025;-55
2021/09/07 10:01:59;;;;;;;2.85;2.42;;;25.60;49.30;;;;;;5035649;28;20045;-57
2021/09/07 10:04:27;;;;;;;3.00;2.50;;;25.50;49.20;;;;;;5031543;28;20098;-57
2021/09/07 10:06:53;;;;;;;2.65;2.17;;;25.60;49.20;;;;;;5024780;28;20814;-60
2021/09/07 10:09:24;;;;;;;2.85;2.17;;;25.60;49.20;;;;;;5020660;28;20037;-49
2021/09/07 10:11:59;;;;;;;2.72;2.25;;;25.60;49.20;;;;;;5020789;28;20037;-54
2021/09/07 10:14:29;;;;;;;2.90;2.20;;;25.60;49.20;;;;;;5025189;28;20403;-59
2021/09/07 10:20:25;;;;;;;2.70;2.17;;;25.60;49.30;;;;;;5014404;28;20421;-57
2021/09/07 10:25:51;;;;;;;2.80;1.90;;;25.60;49.20;;;;;;5018885;28;20109;-57
2021/09/07 10:28:32;;;;;;;2.25;1.80;;;25.60;49.40;;;;;;5026117;28;20990;-58
2021/09/07 10:31:02;;;;;;;2.30;1.90;;;25.60;49.60;;;;;;5015909;28;20036;-54
2021/09/07 10:33:29;;;;;;;2.70;2.00;;;25.60;49.50;;;;;;5041245;28;20044;-60
2021/09/07 10:36:05;;;;;;;2.60;2.00;;;25.60;49.50;;;;;;5026939;28;20030;-50
2021/09/07 10:38:39;;;;;;;3.00;2.40;;;25.70;49.60;;;;;;5022262;28;20060;-55
2021/09/07 10:41:04;;;;;;;2.60;2.10;;;25.70;49.50;;;;;;5022568;28;20066;-58
2021/09/07 10:44:09;;;;;;;2.63;2.13;;;25.70;49.40;;;;;;5022060;28;20037;-59
2021/09/07 10:46:48;;;;;;;3.17;2.38;;;25.70;49.30;;;;;;4995465;28;20040;-57
2021/09/07 10:49:15;;;;;;;3.17;2.20;;;25.80;49.40;;;;;;5026355;28;20033;-57
2021/09/07 10:52:05;;;;;;;2.78;2.17;;;25.80;49.40;;;;;;5019634;28;20037;-54
2021/09/07 10:54:32;;;;;;;2.80;2.20;;;25.80;49.30;;;;;;5011108;28;20365;-56
2021/09/07 10:56:59;;;;;;;2.88;2.10;;;25.80;49.30;;;;;;5018749;28;20041;-56
2021/09/07 10:59:47;;;;;;;2.70;2.20;;;25.80;49.40;;;;;;5013478;28;20038;-57
2021/09/07 11:02:37;;;;;;;3.08;2.33;;;25.80;49.40;;;;;;5021798;28;20026;-57
2021/09/07 11:05:05;;;;;;;3.05;2.40;;;25.80;49.30;;;;;;5020721;28;20748;-56
2021/09/07 11:07:45;;;;;;;3.08;2.38;;;25.80;49.50;;;;;;5013755;28;20046;-57
2021/09/07 11:10:32;;;;;;;3.45;2.38;;;25.90;49.40;;;;;;5017840;28;20022;-55
2021/09/07 11:12:57;;;;;;;3.67;2.28;;;25.80;49.30;;;;;;5023441;28;20061;-57
2021/09/07 11:15:25;;;;;;;2.88;2.20;;;25.90;49.40;;;;;;5022645;28;20460;-57
2021/09/07 11:18:05;;;;;;;2.80;2.30;;;25.90;49.30;;;;;;5034751;28;20029;-52
2021/09/07 11:20:45;;;;;;;3.13;2.42;;;25.90;49.30;;;;;;5021948;28;20108;-57
2021/09/07 11:23:12;;;;;;;3.00;2.50;;;25.90;49.40;;;;;;5019707;28;20044;-57
2021/09/07 11:25:43;;;;;;;3.08;2.33;;;25.90;49.40;;;;;;5032488;28;20453;-52
2021/09/07 11:28:10;;;;;;;3.30;2.30;;;25.90;49.30;;;;;;5027670;28;20033;-54
2021/09/07 11:30:38;;;;;;;2.65;2.13;;;25.90;49.30;;;;;;5021473;28;20034;-52
2021/09/07 11:33:07;;;;;;;2.60;2.20;;;25.90;49.30;;;;;;5021735;28;20026;-53
2021/09/07 11:35:37;;;;;;;3.00;2.45;;;25.90;49.20;;;;;;5022839;28;20798;-58
2021/09/07 11:38:06;;;;;;;2.72;2.28;;;25.90;49.20;;;;;;5031135;28;20111;-58
2021/09/07 11:40:33;;;;;;;2.75;2.08;;;26.00;49.30;;;;;;5032196;28;20049;-52
2021/09/07 11:42:59;;;;;;;2.70;2.03;;;26.00;49.30;;;;;;5033329;28;20120;-53
2021/09/07 11:45:33;;;;;;;2.75;2.28;;;26.00;49.30;;;;;;5032688;28;20089;-56
2021/09/07 11:48:01;;;;;;;2.92;2.40;;;26.00;49.40;;;;;;5028738;28;20033;-57
2021/09/07 11:50:32;;;;;;;3.05;2.30;;;26.00;49.40;;;;;;5027380;28;20381;-56
2021/09/07 11:53:00;;;;;;;3.25;2.17;;;26.00;49.30;;;;;;5024487;28;20033;-57
2021/09/07 11:55:48;;;;;;;2.90;2.10;;;26.00;49.30;;;;;;5021499;28;20027;-55
2021/09/07 11:58:42;;;;;;;2.38;2.00;;;26.00;49.40;;;;;;5029174;28;20018;-57
2021/09/07 12:01:18;;;;;;;2.50;2.10;;;26.00;49.40;;;;;;5010990;28;20048;-59
2021/09/07 12:03:48;;;;;;;3.28;2.40;;;26.00;49.30;;;;;;5027994;28;20037;-58
2021/09/07 12:06:17;;;;;;;2.78;2.20;;;26.10;49.40;;;;;;5019632;28;20022;-58
2021/09/07 12:08:47;;;;;;;;;;;26.10;49.40;;;;;;5025215;28;20085;-58
2021/09/07 12:11:22;;;;;;;3.95;2.05;;;26.10;49.50;;;;;;5020231;28;19920;-58
2021/09/07 12:14:04;;;;;;;2.80;2.20;;;26.10;49.50;;;;;;5031919;28;20211;-57
2021/09/07 12:16:30;;;;;;;2.60;2.10;;;26.10;49.50;;;;;;5032256;28;20029;-51
2021/09/07 12:18:55;;;;;;;2.80;2.10;;;26.10;49.50;;;;;;5029742;28;20737;-58
2021/09/07 12:21:26;;;;;;;2.35;2.05;;;26.10;49.50;;;;;;5040978;28;20036;-55
2021/09/07 12:23:53;;;;;;;4.25;2.33;;;26.10;49.50;;;;;;5019018;28;20033;-57
2021/09/07 12:26:36;;;;;;;3.15;2.15;;;26.20;49.60;;;;;;5031549;28;20101;-56
2021/09/07 12:29:18;;;;;;;2.90;2.40;;;26.20;49.60;;;;;;5025532;28;20085;-57
2021/09/07 12:31:47;;;;;;;2.70;2.05;;;26.20;49.60;;;;;;5020228;28;20053;-58
2021/09/07 12:34:21;;;;;;;2.60;2.20;;;26.20;49.60;;;;;;5023588;28;20477;-52
2021/09/07 12:36:50;;;;;;;2.83;2.03;;;26.20;49.60;;;;;;5030347;28;20472;-58
2021/09/07 12:39:17;;;;;;;2.72;2.00;;;26.20;49.60;;;;;;5030348;28;20064;-55
2021/09/07 12:41:44;;;;;;;2.88;2.30;;;26.20;49.60;;;;;;5027891;28;20037;-58
2021/09/07 12:44:16;;;;;;;2.90;2.20;;;26.20;49.60;;;;;;5021875;28;20033;-60
2021/09/07 12:46:43;;;;;;;3.22;2.50;;;26.20;49.60;;;;;;5020828;28;20029;-57
2021/09/07 12:49:09;;;;;;;3.10;2.10;;;26.20;49.60;;;;;;5018533;28;20029;-58
2021/09/07 12:51:35;;;;;;;2.70;2.20;;;26.20;49.70;;;;;;5036520;28;20045;-57
2021/09/07 12:54:02;;;;;;;2.50;2.00;;;26.20;49.70;;;;;;5024109;28;20104;-59
2021/09/07 12:56:34;;;;;;;2.65;2.10;;;26.20;49.60;;;;;;5030513;28;20143;-58